Time;durP1;ratioP1;P1;durP2;ratioP2;P2;SDS_P1;SDS_P2;PMS_P1;PMS_P2;Temp;Humidity;BMP_temperature;BMP_pressure;BME280_temperature;BME280_humidity;BME280_pressure;Samples;Min_cycle;Max_cycle;Signal;HPM_P1;HPM_P2
2023/01/11 00:02:15;;;;;;;9.10;4.97;;;;;;;-9.45;74.55;100527.06;4810464;28;20070;-68
2023/01/11 00:04:46;;;;;;;10.30;5.25;;;;;;;-9.30;74.33;100530.63;4809657;28;20070;-68
2023/01/11 00:07:18;;;;;;;9.32;4.93;;;;;;;-9.18;73.59;100518.78;4809392;28;20115;-66
2023/01/11 00:09:49;;;;;;;9.93;5.00;;;;;;;-9.03;73.34;100523.97;4809296;28;20533;-65
2023/01/11 00:12:19;;;;;;;7.82;4.60;;;;;;;-8.89;73.14;100522.34;4815765;28;20059;-64
2023/01/11 00:14:50;;;;;;;10.18;5.38;;;;;;;-8.71;73.27;100515.94;4813422;28;20436;-67
2023/01/11 00:17:20;;;;;;;8.77;4.70;;;;;;;-8.74;73.11;100497.13;4811978;28;20090;-65
2023/01/11 00:19:50;;;;;;;15.35;6.20;;;;;;;-8.37;72.86;100524.78;4810784;28;20061;-65
2023/01/11 00:22:23;;;;;;;14.80;6.50;;;;;;;-8.25;72.52;100526.41;4809478;28;20055;-64
2023/01/11 00:24:54;;;;;;;14.27;5.97;;;;;;;-8.13;72.19;100525.44;4809771;28;20122;-65
2023/01/11 00:27:24;;;;;;;11.43;5.55;;;;;;;-8.04;71.69;100523.47;4809455;28;20117;-65
2023/01/11 00:29:55;;;;;;;11.82;6.10;;;;;;;-7.91;71.24;100528.53;4810527;28;20059;-64
2023/01/11 00:32:26;;;;;;;11.13;6.03;;;;;;;-7.78;71.05;100529.28;4806355;28;20519;-65
2023/01/11 00:34:56;;;;;;;10.10;5.50;;;;;;;-7.68;70.84;100518.91;4809864;28;20517;-65
2023/01/11 00:37:28;;;;;;;12.48;5.43;;;;;;;-7.52;70.44;100539.31;4809891;28;20331;-65
2023/01/11 00:39:59;;;;;;;10.65;5.25;;;;;;;-7.57;70.32;100528.03;4810400;28;20102;-64
2023/01/11 00:48:05;;;;;;;8.88;5.63;;;;;;;-7.20;70.21;100536.16;4803129;28;20042;-66
2023/01/11 00:50:38;;;;;;;11.55;5.15;;;;;;;-7.35;69.84;100501.38;4811959;28;20063;-66
2023/01/11 00:53:10;;;;;;;9.45;4.72;;;;;;;-7.02;69.71;100543.97;4812927;28;20074;-65
2023/01/11 00:55:41;;;;;;;8.77;4.53;;;;;;;-7.03;69.62;100536.28;4803103;28;20047;-66
2023/01/11 00:58:12;;;;;;;13.15;5.50;;;;;;;-6.88;69.55;100538.84;4813281;28;20118;-66
2023/01/11 01:00:42;;;;;;;10.40;5.30;;;;;;;-6.71;69.42;100540.69;4812978;28;20343;-66
2023/01/11 01:03:13;;;;;;;10.10;6.13;;;;;;;-6.54;69.09;100539.97;4813088;28;20520;-66
2023/01/11 01:05:43;;;;;;;8.02;4.88;;;;;;;-6.37;69.01;100547.66;4812655;28;20137;-66
2023/01/11 01:08:15;;;;;;;9.60;4.47;;;;;;;-6.30;68.49;100539.56;4812992;28;20066;-65
2023/01/11 01:10:46;;;;;;;10.10;4.93;;;;;;;-6.17;68.11;100536.91;4812137;28;20059;-64
2023/01/11 01:16:03;;;;;;;11.68;5.22;;;;;;;-6.16;68.08;100520.88;4802238;28;20517;-67
2023/01/11 01:18:34;;;;;;;7.43;4.57;;;;;;;-6.11;67.44;100527.09;4809114;28;20043;-66
2023/01/11 01:21:07;;;;;;;11.38;5.43;;;;;;;-6.14;67.60;100516.75;4810971;28;20059;-67
2023/01/11 01:23:40;;;;;;;10.75;5.22;;;;;;;-6.08;67.70;100509.44;4809090;28;20055;-64
2023/01/11 01:26:10;;;;;;;10.60;6.35;;;;;;;-6.03;67.43;100516.44;4802140;28;20066;-64
2023/01/11 01:28:41;;;;;;;13.68;6.72;;;;;;;-5.88;67.58;100514.69;4812094;28;20058;-66
2023/01/11 01:31:11;;;;;;;11.75;5.82;;;;;;;-5.88;67.28;100510.47;4811880;28;20051;-65
2023/01/11 01:33:42;;;;;;;13.77;6.82;;;;;;;-5.75;67.55;100501.81;4811449;28;20113;-67
2023/01/11 01:36:12;;;;;;;13.10;6.18;;;;;;;-5.65;66.91;100496.41;4812298;28;20055;-66
2023/01/11 01:38:44;;;;;;;20.23;6.65;;;;;;;-5.51;66.59;100501.34;4811702;28;20051;-67
2023/01/11 01:41:15;;;;;;;12.93;7.00;;;;;;;-5.70;66.07;100459.66;4812036;28;20118;-64
2023/01/11 01:43:50;;;;;;;15.93;6.57;;;;;;;-5.43;65.84;100500.06;4810671;28;20419;-65
2023/01/11 01:46:23;;;;;;;12.75;6.22;;;;;;;-5.49;65.42;100487.00;4802643;28;20050;-64
2023/01/11 01:48:57;;;;;;;11.77;6.97;;;;;;;-5.52;65.83;100494.50;4811789;28;20126;-66
2023/01/11 01:51:32;;;;;;;15.20;8.23;;;;;;;-5.49;65.59;100494.66;4811778;28;20339;-64
2023/01/11 01:54:08;;;;;;;16.50;7.53;;;;;;;-5.55;65.08;100484.16;4801869;28;20075;-66
2023/01/11 01:56:46;;;;;;;12.02;6.60;;;;;;;-5.38;65.78;100493.53;4810919;28;20059;-68
2023/01/11 01:59:20;;;;;;;11.93;6.72;;;;;;;-5.38;65.55;100468.06;4801988;28;20062;-67
2023/01/11 02:01:52;;;;;;;14.70;6.95;;;;;;;-5.36;65.04;100476.66;4803033;28;20058;-65
2023/01/11 02:04:25;;;;;;;14.93;6.80;;;;;;;-5.21;64.82;100477.44;4811801;28;20062;-64
2023/01/11 02:07:00;;;;;;;12.85;6.53;;;;;;;-5.00;64.77;100476.75;4810904;28;20047;-67
2023/01/11 02:09:35;;;;;;;12.20;6.53;;;;;;;-4.78;63.83;100479.56;4803130;28;20063;-63
2023/01/11 02:12:08;;;;;;;14.38;7.40;;;;;;;-4.78;63.61;100446.41;4810718;28;20394;-66
2023/01/11 02:14:41;;;;;;;12.98;6.43;;;;;;;-4.39;62.81;100459.31;4810938;28;20110;-65
2023/01/11 02:17:12;;;;;;;15.10;7.35;;;;;;;-4.07;62.20;100447.13;4801788;28;20402;-66
2023/01/11 02:19:54;;;;;;;13.50;7.47;;;;;;;-3.75;61.91;100470.69;4811396;28;20113;-67
2023/01/11 02:22:57;;;;;;;14.50;6.43;;;;;;;-3.63;61.17;100455.91;4799766;28;20611;-67
2023/01/11 02:26:00;;;;;;;14.63;6.57;;;;;;;-3.57;60.84;100463.84;4810806;28;20470;-64
2023/01/11 02:28:39;;;;;;;14.40;6.45;;;;;;;-3.61;60.78;100463.66;4774610;28;20066;-63
2023/01/11 02:31:17;;;;;;;14.90;6.68;;;;;;;-3.52;61.43;100454.72;4806864;28;20684;-67
2023/01/11 02:33:54;;;;;;;15.77;7.07;;;;;;;-3.64;60.83;100459.28;4811277;28;20478;-66
2023/01/11 02:36:36;;;;;;;13.30;7.22;;;;;;;-3.73;60.79;100435.88;4801290;28;20054;-67
2023/01/11 02:39:16;;;;;;;16.05;7.55;;;;;;;-3.75;60.51;100456.22;4801278;28;20059;-68
2023/01/11 02:45:02;;;;;;;17.80;8.43;;;;;;;-4.08;61.05;100440.28;4791539;28;20051;-68
2023/01/11 02:47:40;;;;;;;17.45;8.65;;;;;;;-4.07;61.04;100449.69;4800346;28;20059;-68
2023/01/11 02:50:18;;;;;;;15.48;7.90;;;;;;;-4.15;60.75;100463.78;4800646;28;20079;-67
2023/01/11 02:52:56;;;;;;;20.05;8.52;;;;;;;-4.12;61.70;100453.72;4807237;28;20118;-66
2023/01/11 02:55:32;;;;;;;17.38;8.60;;;;;;;-3.97;62.40;100444.22;4810552;28;20147;-69
2023/01/11 02:58:06;;;;;;;18.48;8.20;;;;;;;-3.95;62.08;100442.59;4801035;28;20050;-68
2023/01/11 03:00:41;;;;;;;25.55;9.43;;;;;;;-3.82;62.29;100435.47;4809565;28;20058;-63
2023/01/11 03:03:15;;;;;;;18.48;7.45;;;;;;;-3.75;62.14;100429.81;4800366;28;20528;-67
2023/01/11 03:05:49;;;;;;;17.67;7.70;;;;;;;-3.58;63.08;100428.88;4809490;28;20162;-67
2023/01/11 03:08:40;;;;;;;18.70;8.02;;;;;;;-3.55;63.33;100413.69;4804140;28;20055;-65
2023/01/11 03:12:50;;;;;;;18.20;7.97;;;;;;;-3.37;63.74;100415.25;4802461;28;20055;-69
2023/01/11 03:14:15;;;;;;;19.33;8.63;;;;;;;-3.36;63.53;100399.16;4800160;28;20054;-68
2023/01/11 03:16:52;;;;;;;27.27;8.55;;;;;;;-3.26;62.64;100380.81;4800110;28;20119;-67
2023/01/11 03:19:31;;;;;;;19.98;7.78;;;;;;;-2.97;62.04;100393.91;4800163;28;20480;-67
2023/01/11 03:22:08;;;;;;;19.95;9.05;;;;;;;-2.75;62.22;100381.16;4799435;28;20059;-65
2023/01/11 03:24:46;;;;;;;16.60;7.65;;;;;;;-2.91;61.49;100373.69;4808771;28;20991;-65
2023/01/11 03:27:22;;;;;;;17.90;7.53;;;;;;;-2.68;61.60;100388.25;4809657;28;20478;-68
2023/01/11 03:30:00;;;;;;;19.70;7.38;;;;;;;-2.61;61.23;100382.56;4800129;28;20473;-66
2023/01/11 03:32:37;;;;;;;24.30;7.72;;;;;;;-2.73;60.62;100376.09;4803375;28;20051;-65
2023/01/11 03:35:16;;;;;;;16.83;7.60;;;;;;;-2.76;60.37;100384.53;4809009;28;20121;-67
2023/01/11 03:37:52;;;;;;;14.02;7.22;;;;;;;-2.75;60.96;100388.81;4800284;28;20490;-70
2023/01/11 03:40:28;;;;;;;13.20;6.03;;;;;;;-2.78;60.90;100380.16;4799880;28;20978;-67
2023/01/11 03:43:12;;;;;;;14.02;5.82;;;;;;;-2.82;61.03;100376.63;4810124;28;20059;-67
2023/01/11 03:45:48;;;;;;;16.70;6.93;;;;;;;-2.80;61.39;100372.41;4799973;28;20051;-70
2023/01/11 03:48:24;;;;;;;10.57;5.28;;;;;;;-2.77;61.17;100369.13;4809848;28;20039;-70
2023/01/11 03:50:56;;;;;;;11.25;5.32;;;;;;;-2.79;61.80;100374.19;4800862;28;20454;-69
2023/01/11 03:53:30;;;;;;;11.18;5.78;;;;;;;-2.67;61.47;100384.91;4810348;28;20051;-67
2023/01/11 03:56:03;;;;;;;12.75;5.78;;;;;;;-2.55;62.32;100383.59;4800787;28;20536;-64
2023/01/11 03:58:34;;;;;;;7.78;4.47;;;;;;;-2.48;62.13;100385.59;4809315;28;20057;-67
2023/01/11 04:01:05;;;;;;;11.52;4.22;;;;;;;-2.47;61.54;100377.09;4810057;28;20146;-69
2023/01/11 04:03:38;;;;;;;9.63;4.20;;;;;;;-2.45;61.76;100366.09;4808985;28;20118;-66
2023/01/11 04:06:11;;;;;;;11.88;4.40;;;;;;;-2.40;61.78;100373.94;4809160;28;20146;-67
2023/01/11 04:08:42;;;;;;;9.32;5.15;;;;;;;-2.39;61.12;100375.72;4799712;28;20062;-69
2023/01/11 04:11:12;;;;;;;10.82;5.07;;;;;;;-2.40;60.66;100373.94;4810362;28;20397;-68
2023/01/11 04:13:43;;;;;;;11.50;4.90;;;;;;;-2.44;60.85;100374.66;4809591;28;20101;-68
2023/01/11 04:16:14;;;;;;;11.82;5.05;;;;;;;-2.45;60.79;100366.09;4812705;28;20143;-65
2023/01/11 04:18:46;;;;;;;10.90;4.72;;;;;;;-2.39;61.21;100365.47;4813160;28;20157;-66
2023/01/11 04:21:16;;;;;;;12.88;4.57;;;;;;;-2.38;60.80;100351.84;4813681;28;20053;-67
2023/01/11 04:23:47;;;;;;;10.68;4.70;;;;;;;-2.39;60.86;100345.00;4812292;28;20117;-69
2023/01/11 04:26:17;;;;;;;12.15;5.00;;;;;;;-2.42;60.78;100347.41;4813179;28;20540;-68
2023/01/11 04:28:48;;;;;;;17.25;5.00;;;;;;;-2.45;60.60;100352.44;4812916;28;20382;-67
2023/01/11 04:31:21;;;;;;;11.75;4.30;;;;;;;-2.43;61.20;100369.59;4804219;28;20086;-68
2023/01/11 04:33:53;;;;;;;8.25;3.80;;;;;;;-2.38;61.54;100372.31;4813755;28;20082;-70
2023/01/11 04:36:24;;;;;;;10.38;4.13;;;;;;;-2.35;61.44;100377.56;4813098;28;20055;-69
2023/01/11 04:38:54;;;;;;;12.57;5.85;;;;;;;-2.42;60.99;100376.47;4813817;28;20437;-66
2023/01/11 04:44:12;;;;;;;7.30;3.65;;;;;;;-2.54;60.91;100385.38;4802281;28;20466;-65
2023/01/11 04:46:43;;;;;;;5.88;3.50;;;;;;;-2.53;61.62;100397.34;4812542;28;20231;-69
2023/01/11 04:49:15;;;;;;;7.50;3.88;;;;;;;-2.57;61.21;100405.69;4813530;28;20502;-67
2023/01/11 04:51:45;;;;;;;7.10;3.70;;;;;;;-2.62;60.96;100411.53;4811932;28;20090;-68
2023/01/11 04:54:17;;;;;;;9.88;4.07;;;;;;;-2.82;61.11;100382.63;4812105;28;20054;-65
2023/01/11 04:56:47;;;;;;;6.07;3.33;;;;;;;-2.68;62.25;100408.72;4812322;28;20055;-70
2023/01/11 04:59:18;;;;;;;6.03;3.35;;;;;;;-2.69;62.06;100417.22;4809819;28;20449;-67
2023/01/11 05:01:48;;;;;;;8.43;3.97;;;;;;;-2.79;61.64;100394.66;4810165;28;22584;-68
2023/01/11 05:04:21;;;;;;;7.82;3.95;;;;;;;-2.80;62.04;100407.34;4808016;28;20059;-66
2023/01/11 05:06:51;;;;;;;6.82;3.80;;;;;;;-2.82;62.39;100409.88;4810593;28;20055;-70
2023/01/11 05:09:22;;;;;;;9.55;4.07;;;;;;;-2.92;62.68;100397.50;4811147;28;20058;-66
2023/01/11 05:11:52;;;;;;;9.32;4.50;;;;;;;-2.97;62.40;100404.13;4811911;28;20050;-70
2023/01/11 05:14:23;;;;;;;11.32;4.38;;;;;;;-2.98;62.55;100412.63;4812291;28;20054;-69
2023/01/11 05:16:54;;;;;;;8.95;4.30;;;;;;;-3.03;63.16;100415.84;4811815;28;20077;-65
2023/01/11 05:19:26;;;;;;;6.78;4.13;;;;;;;-3.11;64.22;100421.47;4812133;28;20588;-69
2023/01/11 05:21:57;;;;;;;9.35;4.57;;;;;;;-3.18;64.77;100419.47;4806878;28;20082;-69
2023/01/11 05:24:28;;;;;;;9.13;4.15;;;;;;;-3.28;65.45;100418.22;4812284;28;20062;-68
2023/01/11 05:26:59;;;;;;;10.52;6.10;;;;;;;-3.33;64.38;100419.72;4791202;28;20130;-65
2023/01/11 05:29:29;;;;;;;19.00;8.57;;;;;;;-3.50;64.48;100427.50;4819943;28;20051;-63
2023/01/11 05:32:00;;;;;;;15.18;7.65;;;;;;;-3.64;63.86;100423.53;4808189;28;20085;-68
2023/01/11 05:34:32;;;;;;;14.02;6.82;;;;;;;-3.67;63.78;100428.47;4812227;28;20074;-68
2023/01/11 05:37:03;;;;;;;10.77;4.70;;;;;;;-3.73;63.62;100428.22;4812267;28;20061;-63
2023/01/11 05:39:33;;;;;;;14.10;7.45;;;;;;;-3.93;63.42;100430.75;4812403;28;20154;-68
2023/01/11 05:42:04;;;;;;;27.75;14.05;;;;;;;-4.11;64.26;100435.06;4811918;28;20267;-69
2023/01/11 05:47:18;;;;;;;18.25;9.18;;;;;;;-4.36;66.35;100438.16;4771628;28;20058;-69
2023/01/11 05:49:50;;;;;;;11.80;6.85;;;;;;;-4.47;66.69;100435.09;4811340;28;22088;-68
2023/01/11 05:52:20;;;;;;;12.23;4.97;;;;;;;-4.52;67.29;100451.88;4802922;28;20150;-67
2023/01/11 05:54:51;;;;;;;7.43;4.28;;;;;;;-4.69;67.89;100452.75;4811768;28;20057;-68
2023/01/11 05:57:22;;;;;;;5.32;3.25;;;;;;;-4.86;68.42;100454.50;4811811;28;20528;-67
2023/01/11 05:59:52;;;;;;;27.55;18.80;;;;;;;-5.06;68.56;100451.84;4811118;28;20078;-69
2023/01/11 06:02:23;;;;;;;18.35;11.05;;;;;;;-5.18;69.06;100445.28;4811094;28;20101;-69
2023/01/11 06:04:55;;;;;;;13.80;8.65;;;;;;;-5.40;69.30;100434.00;4809583;28;20051;-69
2023/01/11 06:07:26;;;;;;;11.35;7.07;;;;;;;-5.46;69.25;100446.44;4811585;28;20082;-68
2023/01/11 06:09:56;;;;;;;7.68;5.35;;;;;;;-5.54;69.84;100445.16;4806128;28;20043;-68
2023/01/11 06:12:27;;;;;;;8.85;5.30;;;;;;;-5.69;70.25;100456.34;4810294;28;20145;-67
2023/01/11 06:14:58;;;;;;;6.28;3.50;;;;;;;-5.94;71.12;100448.22;4810938;28;20445;-68
2023/01/11 06:17:28;;;;;;;5.65;3.03;;;;;;;-6.10;72.52;100455.06;4812014;28;20059;-67
2023/01/11 06:20:01;;;;;;;13.25;5.75;;;;;;;-6.25;73.39;100456.78;4808653;28;20123;-69
2023/01/11 06:22:31;;;;;;;15.02;13.32;;;;;;;-6.32;73.79;100454.69;4810937;28;20051;-69
2023/01/11 06:25:02;;;;;;;14.45;9.68;;;;;;;-6.29;74.30;100465.03;4808886;28;20066;-68
2023/01/11 06:27:32;;;;;;;15.70;10.32;;;;;;;-6.30;74.55;100463.28;4811265;28;20046;-65
2023/01/11 06:30:03;;;;;;;11.25;5.18;;;;;;;-6.31;74.61;100479.34;4809800;28;20532;-68
2023/01/11 06:32:34;;;;;;;7.90;4.35;;;;;;;-6.41;74.98;100474.56;4810676;28;20147;-69
2023/01/11 06:35:07;;;;;;;8.98;5.95;;;;;;;-6.52;75.20;100472.28;4809931;28;20051;-69
2023/01/11 06:37:37;;;;;;;8.63;4.32;;;;;;;-6.51;75.60;100494.38;4807275;28;20600;-66
2023/01/11 06:40:09;;;;;;;6.28;3.40;;;;;;;-6.64;76.05;100486.88;4809528;28;20086;-67
2023/01/11 06:42:39;;;;;;;5.63;3.35;;;;;;;-6.70;76.60;100506.84;4806185;28;20081;-68
2023/01/11 06:45:11;;;;;;;7.43;3.33;;;;;;;-6.79;77.67;100508.84;4814448;28;20043;-66
2023/01/11 06:47:42;;;;;;;7.28;4.05;;;;;;;-6.84;78.42;100512.81;4810495;28;20530;-68
2023/01/11 06:50:14;;;;;;;6.20;4.05;;;;;;;-6.87;79.00;100520.25;4810492;28;20097;-68
2023/01/11 06:52:52;;;;;;;9.32;4.63;;;;;;;-6.93;79.43;100512.28;4810050;28;20445;-68
2023/01/11 06:55:23;;;;;;;6.03;4.43;;;;;;;-6.98;79.99;100517.97;4799732;28;20426;-68
2023/01/11 06:57:54;;;;;;;5.40;4.00;;;;;;;-7.21;80.48;100491.25;4810613;28;20457;-67
2023/01/11 07:00:24;;;;;;;8.98;4.40;;;;;;;-6.95;81.11;100520.69;4810045;28;20054;-68
2023/01/11 07:02:55;;;;;;;19.73;11.20;;;;;;;-6.85;81.50;100508.53;4810005;28;20065;-68
2023/01/11 07:05:27;;;;;;;9.80;5.40;;;;;;;-6.87;81.59;100505.00;4810651;28;20058;-68
2023/01/11 07:07:58;;;;;;;13.55;7.82;;;;;;;-6.77;82.31;100509.81;4809847;28;20377;-68
2023/01/11 07:10:29;;;;;;;11.05;6.78;;;;;;;-6.78;82.01;100495.38;4809076;28;20089;-66
2023/01/11 07:13:00;;;;;;;5.82;4.05;;;;;;;-6.80;81.05;100499.50;4813008;28;20043;-69
2023/01/11 07:15:31;;;;;;;8.95;5.82;;;;;;;-6.97;81.13;100507.00;4811636;28;20051;-68
2023/01/11 07:18:02;;;;;;;8.30;4.55;;;;;;;-6.99;81.71;100503.53;4810160;28;20113;-66
2023/01/11 07:20:34;;;;;;;8.10;4.90;;;;;;;-6.85;82.45;100505.97;4809889;28;20078;-65
2023/01/11 07:23:06;;;;;;;7.57;4.20;;;;;;;-6.84;82.47;100500.09;4809682;28;20923;-68
2023/01/11 07:25:37;;;;;;;8.10;4.70;;;;;;;-6.76;82.51;100514.13;4820552;28;20492;-68
2023/01/11 07:28:08;;;;;;;10.07;4.57;;;;;;;-6.74;82.66;100522.69;4809752;28;20050;-68
2023/01/11 07:30:40;;;;;;;7.85;4.35;;;;;;;-6.64;82.68;100524.09;4808722;28;20055;-69
2023/01/11 07:33:27;;;;;;;7.80;4.63;;;;;;;-6.57;82.81;100534.69;4800153;28;20050;-69
2023/01/11 07:35:59;;;;;;;10.40;4.72;;;;;;;-6.60;82.12;100543.81;4809053;28;20078;-68
2023/01/11 07:38:30;;;;;;;8.73;4.95;;;;;;;-6.66;82.08;100533.28;4803396;28;20052;-68
2023/01/11 07:43:10;;;;;;;9.65;5.18;;;;;;;-6.81;81.61;100543.50;4809480;28;20054;-67
2023/01/11 07:43:50;;;;;;;13.23;6.53;;;;;;;-6.99;80.74;100549.25;4800453;28;20149;-67
2023/01/11 07:46:21;;;;;;;10.50;6.40;;;;;;;-7.14;80.79;100550.88;4809240;28;20089;-68
2023/01/11 07:48:52;;;;;;;10.57;5.95;;;;;;;-7.54;81.03;100510.44;4813948;28;20061;-65
2023/01/11 07:51:24;;;;;;;9.90;6.57;;;;;;;-7.34;80.63;100553.91;4813800;28;20055;-68
2023/01/11 07:53:55;;;;;;;11.43;6.60;;;;;;;-7.59;80.18;100562.56;4826472;28;20072;-68
2023/01/11 07:56:25;;;;;;;12.45;6.82;;;;;;;-7.81;80.05;100556.22;4814429;28;20118;-68
2023/01/11 07:58:56;;;;;;;12.85;6.97;;;;;;;-8.09;79.71;100563.75;4813298;28;20051;-68
2023/01/11 08:01:26;;;;;;;11.23;6.55;;;;;;;-8.38;79.67;100568.66;4820479;28;20051;-67
2023/01/11 08:03:58;;;;;;;53.17;22.98;;;;;;;-8.63;80.17;100553.56;4815407;28;20113;-68
2023/01/11 08:06:33;;;;;;;155.60;70.82;;;;;;;-8.84;80.00;100561.50;4809931;28;20052;-68
2023/01/11 08:09:04;;;;;;;37.88;21.45;;;;;;;-9.38;80.04;100498.88;4810309;28;20090;-68
2023/01/11 08:14:48;;;;;;;11.20;7.45;;;;;;;-9.26;81.04;100595.88;4802456;28;20065;-67
2023/01/11 08:17:20;;;;;;;9.02;5.28;;;;;;;-9.42;81.48;100585.47;4804705;28;20485;-67
2023/01/11 08:20:04;;;;;;;7.70;4.50;;;;;;;-9.48;81.79;100593.50;4812887;28;20062;-67
2023/01/11 08:22:54;;;;;;;11.85;5.72;;;;;;;-9.67;81.96;100576.19;4802581;28;20047;-67
2023/01/11 08:25:41;;;;;;;279.92;90.50;;;;;;;-9.90;81.64;100591.41;4802500;28;20438;-68
2023/01/11 08:28:24;;;;;;;136.02;46.97;;;;;;;-10.13;82.14;100598.25;4799531;28;20138;-67
2023/01/11 08:31:33;;;;;;;30.23;15.27;;;;;;;-10.37;82.33;100586.44;4799246;28;20394;-65
2023/01/11 08:34:28;;;;;;;10.10;4.80;;;;;;;-10.40;82.96;100606.41;4732474;29;20063;-67
2023/01/11 08:40:21;;;;;;;8.35;5.32;;;;;;;-10.46;84.12;100597.63;4727345;29;20067;-67
2023/01/11 08:43:01;;;;;;;54.97;24.75;;;;;;;-10.52;83.91;100602.22;4724418;29;20367;-67
2023/01/11 08:45:32;;;;;;;57.92;30.00;;;;;;;-10.60;84.40;100612.56;4725743;29;20116;-67
2023/01/11 08:48:26;;;;;;;32.60;19.30;;;;;;;-10.70;84.70;100616.03;4736150;29;20057;-67
2023/01/11 08:51:15;;;;;;;10.98;6.25;;;;;;;-10.74;84.85;100624.16;4720212;29;20658;-67
2023/01/11 08:54:08;;;;;;;;;;;;;;;;;;;;;
2023/01/11 08:56:44;;;;;;;13.30;7.45;;;;;;;-11.22;85.20;100569.28;4723338;29;20871;-67
2023/01/11 08:59:29;;;;;;;12.02;7.50;;;;;;;-10.97;85.24;100624.97;4723635;29;20056;-66
2023/01/11 09:02:24;;;;;;;9.23;4.80;;;;;;;-10.93;85.42;100631.97;4723861;29;20136;-66
2023/01/11 09:08:13;;;;;;;11.90;6.72;;;;;;;-10.81;86.21;100626.97;4719051;29;20139;-67
2023/01/11 09:10:44;;;;;;;32.90;15.55;;;;;;;-10.60;86.44;100623.53;4737582;28;20072;-67
2023/01/11 09:13:17;;;;;;;25.20;10.95;;;;;;;-10.76;85.50;100620.63;4806783;28;20046;-66
2023/01/11 09:15:48;;;;;;;32.70;13.00;;;;;;;-10.81;85.02;100626.97;4807909;28;20063;-66
2023/01/11 09:18:19;;;;;;;29.85;13.43;;;;;;;-10.87;85.18;100633.34;4804184;28;20521;-66
2023/01/11 09:21:09;;;;;;;23.02;12.70;;;;;;;-10.83;85.12;100633.56;4811197;28;20043;-67
2023/01/11 09:28:29;;;;;;;204.13;80.25;;;;;;;-10.31;84.73;100637.38;4793402;28;20787;-64
2023/01/11 09:31:20;;;;;;;187.30;76.07;;;;;;;-10.64;83.45;100636.69;4818582;28;20053;-67
2023/01/11 09:34:25;;;;;;;76.93;35.22;;;;;;;-10.79;82.70;100645.66;4798374;28;20066;-66
2023/01/11 09:37:08;;;;;;;24.05;10.38;;;;;;;-10.93;82.11;100645.50;4784880;28;21203;-65
2023/01/11 09:39:58;;;;;;;200.07;45.30;;;;;;;-11.10;82.06;100618.13;4806172;28;20085;-65
2023/01/11 09:42:38;;;;;;;35.70;11.70;;;;;;;-11.05;81.93;100642.06;4794365;28;20056;-65
2023/01/11 09:45:31;;;;;;;14.93;6.53;;;;;;;-11.25;80.79;100637.16;4792888;28;20067;-67
2023/01/11 09:48:35;;;;;;;26.55;8.85;;;;;;;-11.36;80.58;100652.31;4809108;28;20517;-67
2023/01/11 09:58:41;;;;;;;14.20;7.35;;;;;;;-11.38;82.56;100646.31;4733306;29;20075;-67
2023/01/11 10:05:18;;;;;;;40.30;12.13;;;;;;;-11.47;82.60;100649.75;4676078;29;20069;-67
2023/01/11 10:11:57;;;;;;;9.18;5.30;;;;;;;-11.36;83.27;100659.88;4651606;29;22811;-68
2023/01/11 10:48:26;;;;;;;19.83;9.23;;;;;;;-12.17;83.35;100672.09;4557467;29;20082;-67
2023/01/11 10:51:03;;;;;;;17.60;7.88;;;;;;;-11.97;83.84;100706.44;4613104;29;20063;-68
2023/01/11 10:53:42;;;;;;;14.85;7.72;;;;;;;-11.85;84.36;100690.50;4624924;29;20066;-68
2023/01/11 10:56:25;;;;;;;18.60;9.85;;;;;;;-11.81;83.88;100695.88;4736475;29;20056;-67
2023/01/11 10:59:16;;;;;;;18.55;10.07;;;;;;;-11.79;83.71;100681.78;4743877;28;20047;-67
2023/01/11 11:01:57;;;;;;;14.50;7.30;;;;;;;-11.75;83.04;100683.78;4773148;28;20438;-68
2023/01/11 11:05:08;;;;;;;9.35;5.53;;;;;;;-11.89;81.61;100694.44;4778743;28;20158;-67
2023/01/11 11:07:47;;;;;;;9.50;5.53;;;;;;;-12.44;80.35;100670.75;4774356;28;20061;-67
2023/01/11 11:10:25;;;;;;;6.25;4.50;;;;;;;-12.70;78.76;100695.41;4786948;28;20085;-67
2023/01/11 11:13:10;;;;;;;7.50;3.67;;;;;;;-13.07;79.08;100698.28;4785984;28;20060;-67
2023/01/11 11:15:49;;;;;;;8.85;4.63;;;;;;;-13.15;79.88;100693.34;4777881;28;20055;-68
2023/01/11 11:18:23;;;;;;;9.32;5.85;;;;;;;-13.02;80.30;100690.25;4776630;28;20061;-67
2023/01/11 11:21:08;;;;;;;8.05;4.82;;;;;;;-12.93;80.94;100683.44;4786788;28;20154;-67
2023/01/11 11:23:41;;;;;;;11.55;4.90;;;;;;;-12.77;81.45;100678.94;4780832;28;20086;-67
2023/01/11 11:26:13;;;;;;;6.72;4.32;;;;;;;-12.76;81.38;100669.75;4809013;28;20530;-65
2023/01/11 11:29:01;;;;;;;5.93;3.38;;;;;;;-12.94;80.45;100664.09;4810063;28;20354;-65
2023/01/11 11:31:43;;;;;;;5.93;4.10;;;;;;;-13.18;79.54;100668.81;4799950;28;20542;-69
2023/01/11 11:34:26;;;;;;;6.70;4.07;;;;;;;-13.23;79.75;100675.09;4801036;28;20066;-66
2023/01/11 11:37:01;;;;;;;24.95;7.97;;;;;;;-13.16;79.95;100681.53;4799921;28;20097;-66
2023/01/11 11:39:33;;;;;;;36.95;10.55;;;;;;;-13.00;80.31;100683.69;4798858;28;20149;-67
2023/01/11 11:42:07;;;;;;;41.15;12.10;;;;;;;-12.85;80.99;100679.94;4815368;28;20489;-66
2023/01/11 11:44:39;;;;;;;25.67;8.15;;;;;;;-12.66;81.00;100695.78;4820472;28;21462;-65
2023/01/11 11:47:17;;;;;;;12.25;4.97;;;;;;;-12.72;80.92;100662.59;4804297;28;20058;-65
2023/01/11 11:50:32;;;;;;;37.05;11.18;;;;;;;-13.08;79.13;100663.81;4797550;28;20145;-67
2023/01/11 11:53:42;;;;;;;28.83;9.40;;;;;;;-12.74;78.96;100699.31;4801239;28;20087;-67
2023/01/11 11:56:20;;;;;;;22.77;7.45;;;;;;;-13.32;78.58;100568.78;4810686;28;20055;-66
2023/01/11 11:58:55;;;;;;;36.42;13.50;;;;;;;-12.73;78.28;100701.06;4810351;28;20061;-67
2023/01/11 12:01:38;;;;;;;15.27;5.78;;;;;;;-13.31;77.50;100620.81;4820315;28;20046;-65
2023/01/11 12:04:17;;;;;;;17.67;7.13;;;;;;;-13.01;76.82;100692.00;4808963;28;20062;-66
2023/01/11 12:07:07;;;;;;;30.80;8.93;;;;;;;-13.34;75.77;100683.41;4812557;28;20042;-66
2023/01/11 12:09:54;;;;;;;42.58;11.48;;;;;;;-13.68;76.15;100647.84;4813541;28;20058;-66
2023/01/11 12:12:26;;;;;;;53.00;13.95;;;;;;;-13.44;76.93;100678.34;4812093;28;20047;-66
2023/01/11 12:15:20;;;;;;;57.60;19.08;;;;;;;-13.34;77.72;100680.91;4820859;28;20189;-66
2023/01/11 12:18:16;;;;;;;61.05;21.27;;;;;;;-13.51;78.38;100652.69;4802972;28;20178;-66
2023/01/11 12:20:48;;;;;;;47.45;15.63;;;;;;;-13.06;78.85;100684.94;4805717;28;20461;-67
2023/01/11 12:23:20;;;;;;;50.05;14.90;;;;;;;-13.18;78.16;100678.88;4820477;28;20492;-65
2023/01/11 12:26:28;;;;;;;33.72;11.40;;;;;;;-14.03;77.29;100572.88;4810544;28;20055;-66
2023/01/11 12:29:30;;;;;;;37.65;12.45;;;;;;;-13.33;77.83;100682.66;4811011;28;20057;-65
2023/01/11 12:32:17;;;;;;;45.40;12.07;;;;;;;-13.31;78.10;100691.22;4812362;28;20058;-65
2023/01/11 12:35:17;;;;;;;72.43;14.15;;;;;;;-13.27;78.60;100683.19;4813602;28;20437;-64
2023/01/11 12:38:14;;;;;;;46.55;11.10;;;;;;;-13.26;78.85;100687.41;4825670;28;20480;-64
2023/01/11 12:41:01;;;;;;;32.45;10.30;;;;;;;-13.28;79.08;100688.94;4816276;28;20063;-65
2023/01/11 12:44:03;;;;;;;35.42;9.73;;;;;;;-13.21;79.55;100688.69;4797195;28;20055;-66
2023/01/11 12:47:13;;;;;;;22.23;7.88;;;;;;;-13.34;79.02;100690.94;4814324;28;20170;-65
2023/01/11 12:49:54;;;;;;;21.65;8.07;;;;;;;-13.22;80.52;100646.69;4797530;28;20408;-65
2023/01/11 12:52:47;;;;;;;31.27;9.30;;;;;;;-12.91;80.66;100689.50;4797463;28;20051;-65
2023/01/11 12:55:38;;;;;;;21.75;8.82;;;;;;;-12.72;80.89;100686.88;4797776;28;20051;-66
2023/01/11 12:58:15;;;;;;;;;;;;;;;-12.75;80.03;100687.50;4797985;28;20383;-66
2023/01/11 13:01:06;;;;;;;17.55;6.68;;;;;;;-12.93;79.43;100675.91;4804095;28;19926;-64
2023/01/11 13:04:07;;;;;;;34.53;10.07;;;;;;;-13.08;78.95;100671.38;4815014;28;20489;-66
2023/01/11 13:06:47;;;;;;;47.00;12.82;;;;;;;-13.13;79.40;100667.56;4815814;28;20070;-67
2023/01/11 13:09:32;;;;;;;42.10;16.80;;;;;;;-13.08;79.88;100671.38;4814471;28;20408;-65
2023/01/11 13:12:14;;;;;;;30.88;14.40;;;;;;;-13.04;80.02;100668.34;4813205;28;20050;-66
2023/01/11 13:15:00;;;;;;;37.92;15.00;;;;;;;-13.09;79.65;100674.63;4812796;28;20058;-64
2023/01/11 13:17:48;;;;;;;35.17;12.20;;;;;;;-13.10;79.63;100664.44;4812891;28;20113;-65
2023/01/11 13:20:56;;;;;;;22.70;8.95;;;;;;;-12.79;80.46;100659.44;4812992;28;20406;-66
2023/01/11 13:27:06;;;;;;;19.67;7.15;;;;;;;-12.85;78.88;100674.91;4811927;28;20050;-65